Boyan Despodov

Recruteur - Ludogorets
3 Déc 2028
Dimanche
Processus

Personnalité

Adaptabilité (10) Ambition (7) Controverse (14) Loyauté (2) Pression (19) Professionnalisme (7) Sportivité (7) Tempérament (5)

Profil

Style d'entraînement Démocratique
Diplôme Continental B
Détermination 6
Gestion des joueurs 8
Motivation 6
Discipline 9
Satisfaction professionnelle
100%
Fatigue
0%
Rôle Recruteur
Salaire 44.3K p/s
Contrat 14.03.2029

Performance

Comportement Bon
Efficacité de l'entraînement
41%
Développement des joueurs
40%
Prévention des blessures
55%
Mise en place tactique
35%

Événements récents

A évalué un joueur maintenant
A participé à une réunion de recrutement maintenant
A recommandé une cible de transfert maintenant
A recommandé une cible de transfert maintenant
A recommandé une cible de transfert maintenant
A évalué un joueur maintenant
A évalué un joueur 7j
A évalué un joueur 7j

Suivi en cours

235
Joueur Club Statut Capacité Confiance Observé Dernière observation Dernier vote
Ki-Jana Hoever Sparta Prague Actif 141 / 136 40% 2 02.12.2028 -
Malick Thiaw Ipswich Town Actif 164 / 168 40% 3 02.12.2028 -
Marcos Senesi Cardiff City Actif 152 / 158 40% 1 02.12.2028 -
Luke McNally Bristol City Actif 146 / 133 40% 3 30.11.2028 -
James Justin Leeds United Actif 144 / 141 40% 6 30.11.2028 -
Ladislav Krejčí Wolverhampton Actif 158 / 158 40% 2 30.11.2028 -
Angeliño AS Roma Actif 161 / 150 40% 6 28.11.2028 -
Lewis Cook Blackburn Rovers Actif 154 / 154 40% 8 27.11.2028 -
Théo Hernández CSKA Moscow Actif 166 / 162 40% 4 27.11.2028 -
Ryan Yates Mansfield Town Actif 140 / 148 40% 5 27.11.2028 -
Ezri Konsa Hull City Actif 158 / 162 40% 2 25.11.2028 -
Vitaly Janelt Derby County Actif 145 / 152 40% 6 24.11.2028 -
Florentino Luís Ipswich Town Actif 149 / 156 40% 6 24.11.2028 -
Timothy Castagne Stoke City Actif 148 / 143 40% 2 23.11.2028 -
Charlie Hughes Chesterfield Actif 136 / 143 40% 9 23.11.2028 -
Ismaël Bennacer Boca Juniors Actif 159 / 161 40% 9 22.11.2028 -
Tarik Muharemović Leeds United Actif 149 / 156 40% 2 22.11.2028 -
Xaver Schlager Nottingham Forest Actif 156 / 150 40% 6 21.11.2028 -
Dennis Cirkin Queens Park Rangers Actif 140 / 145 40% 2 21.11.2028 -
Bafodé Diakité Plymouth Argyle Actif 156 / 145 40% 7 20.11.2028 -
Anton Stach Reading Actif 154 / 161 40% 7 20.11.2028 -
Gabriel Gudmundsson Leeds United Actif 154 / 153 40% 1 20.11.2028 -
Evander Wolverhampton Actif 155 / 150 40% 8 19.11.2028 -
Guille Rosas Boca Juniors Actif 140 / 147 40% 3 19.11.2028 -
Lewis Hall Newcastle United Actif 165 / 156 40% 3 17.11.2028 -
Kevin Lomónaco Elche Actif 143 / 150 40% 1 17.11.2028 -
Yerson Mosquera Wolverhampton Actif 146 / 153 40% 1 17.11.2028 -
Dara O'Shea Ipswich Town Actif 139 / 146 40% 3 16.11.2028 -
Carlos Baleba Norwich City Actif 160 / 161 40% 9 14.11.2028 -
Daichi Kamada Luton Town Actif 152 / 153 40% 5 14.11.2028 -
Ronnie Edwards Queens Park Rangers Actif 143 / 138 40% 2 13.11.2028 -
Álex Valle Boca Juniors Actif 139 / 148 40% 5 12.11.2028 -
Nico Elvedi Leeds United Actif 148 / 147 40% 1 09.11.2028 -
Sergio Barreto Oleksandriya Actif 144 / 146 40% 1 06.11.2028 -
Jordan Beyer Burnley Actif 149 / 145 40% 1 04.11.2028 -
Joe Rodon Blackburn Rovers Actif 144 / 141 40% 5 03.11.2028 -
Sander Berge Derby County Actif 159 / 144 40% 3 02.11.2028 -
Olivier Boscagli Brighton Actif 153 / 151 40% 2 02.11.2028 -
Alfie Gilchrist West Bromwich Albion Actif 146 / 147 40% 4 31.10.2028 -
Lucas Gourna-Douath Cambridge United Actif 142 / 136 40% 1 28.10.2028 -
Rico Henry River Plate Actif 154 / 153 40% 8 27.10.2028 -
Caleb Yirenkyi Coventry City Actif 154 / 158 40% 1 26.10.2028 -
Ramón Terrats Getafe Actif 154 / 153 40% 1 25.10.2028 -
Pedro Henrique Shakhtar Actif 145 / 147 40% 1 24.10.2028 -
Tyrick Mitchell Newcastle United Actif 162 / 155 40% 5 23.10.2028 -
Ayden Heaven Portsmouth Actif 149 / 151 40% 4 22.10.2028 -
Max Alleyne Bradford City Actif 145 / 149 40% 1 22.10.2028 -
Toby Collyer West Bromwich Albion Actif 143 / 140 40% 7 21.10.2028 -
Teboho Mokoena Mamelodi Sundowns Actif 139 / 151 40% 2 17.10.2028 -
Saša Lukić Utrecht Actif 153 / 143 40% 2 15.10.2028 -
Andrey Santos Bolton Wanderers Actif 160 / 148 40% 6 10.10.2028 -
Lewis Miley Newcastle United Actif 161 / 159 40% 1 10.10.2028 -
Johan Manzambi Millwall Actif 152 / 158 40% 1 08.10.2028 -
Japhet Tanganga Sheffield United Actif 135 / 148 40% 4 07.10.2028 -
Leny Yoro Preston Actif 153 / 157 40% 1 06.10.2028 -
Ao Tanaka Charlton Athletic Actif 149 / 150 40% 1 06.10.2028 -
Jhon Solís Birmingham Actif 141 / 144 40% 9 02.10.2028 -
David Carmo Olympiacos Perdu 147 / 155 40% 1 28.08.2028 -
Sandi Lovrić Juve Stabia Actif 147 / 140 40% 2 14.08.2028 -
Michele Collocolo Cremonese Actif 139 / 138 40% 1 14.08.2028 -
Tommaso Barbieri Cremonese Actif 145 / 141 40% 2 12.08.2028 -
Nathan Patterson Torino Actif 140 / 146 40% 1 12.08.2028 -
Sean Longstaff Leeds United Actif 144 / 142 40% 1 08.08.2028 -
Antonino Gallo Bari Actif 152 / 146 40% 2 07.08.2028 -
Kenny Tete Fulham Actif 146 / 139 40% 1 07.08.2028 -
Bobby Thomas Grimsby Town Actif 147 / 142 40% 1 04.08.2028 -
Rafa Marín Pisa Actif 151 / 152 40% 1 04.08.2028 -
Devyne Rensch Virtus Entella Actif 159 / 159 40% 2 03.08.2028 -
Gianluca Busio Venezia Actif 144 / 139 40% 2 02.08.2028 -
Giovanni Leoni Lincoln City Actif 146 / 156 40% 3 01.08.2028 -
Enrico Delprato Parma Actif 154 / 154 40% 1 01.08.2028 -
Thierry Rendall Correia Venezia Actif 148 / 150 40% 1 31.07.2028 -
Eivind Helland AC Milan Actif 140 / 149 40% 3 26.07.2028 -
Omar Alderete Sunderland Actif 163 / 152 40% 1 24.07.2028 -
Max Bird Birmingham Actif 137 / 149 40% 2 12.07.2028 -
Callum Brittain Middlesbrough Actif 142 / 133 40% 3 08.07.2028 -
Tim Iroegbunam Peterborough United Actif 142 / 145 40% 4 06.07.2028 -
Derry Murkin Derby County Actif 141 / 135 40% 1 05.07.2028 -
Yassir Zabiri Stade Rennais Actif 138 / 148 40% 1 04.07.2028 -
Armando Broja Burnley Actif 143 / 148 40% 1 04.07.2028 -
Ilyas Ansah Hull City Actif 134 / 137 40% 1 04.07.2028 -
Lucas Pires Wolverhampton Actif 134 / 130 40% 1 04.07.2028 -
Harry Clarke Preston Actif 140 / 130 40% 2 26.06.2028 -
Wilfried Gnonto Leeds United Actif 147 / 137 40% 1 12.06.2028 -
Oliver Dovin Coventry City Actif 143 / 137 40% 1 01.06.2028 -
Robin Roefs Sunderland Actif 156 / 150 40% 1 01.06.2028 -
Daniel Peretz Wolverhampton Actif 156 / 142 40% 1 01.06.2028 -
Tammy Abraham Aston Villa Actif 156 / 148 40% 1 31.05.2028 -
Lautaro Morales Lanús Actif 150 / 141 40% 1 31.05.2028 -
Dean Henderson Crystal Palace Actif 153 / 157 40% 1 31.05.2028 -
Adrian Šemper Al-Fateh Actif 134 / 125 40% 1 31.05.2028 -
Jacques Ekomié Wrexham Actif 139 / 147 40% 4 30.05.2028 -
Juanlu Bournemouth Actif 153 / 160 40% 1 30.05.2028 -
Georgie Gent Barnsley Actif 122 / 115 40% 4 28.05.2028 -
Thierry Small Preston Actif 132 / 129 40% 3 28.05.2028 -
Justin Devenny Stoke City Actif 129 / 133 40% 8 27.05.2028 -
Reuell Walters Luton Town Actif 131 / 133 40% 4 27.05.2028 -
Brad Hills Stockport County Actif 116 / 129 40% 3 24.05.2028 -
James Dornelly Peterborough United Actif 115 / 118 40% 2 22.05.2028 -
Shea Charles Southampton Actif 153 / 146 40% 2 20.05.2028 -
Kellen Fisher Norwich City Actif 136 / 130 40% 3 17.05.2028 -
Terry Devlin Portsmouth Actif 135 / 137 40% 2 17.05.2028 -
Josh Nichols Oldham Athletic Actif 123 / 120 40% 4 16.05.2028 -
Sydie Peck Swindon Town Actif 141 / 130 40% 3 14.05.2028 -
Bosun Lawal Stoke City Actif 131 / 138 40% 3 12.05.2028 -
Joshua Quarshie Exeter City Actif 125 / 131 40% 2 07.05.2028 -
Calvin Ramsay Bristol Rovers Actif 126 / 134 40% 1 03.05.2028 -
Harvey Vale Queens Park Rangers Actif 127 / 137 40% 5 02.05.2028 -
Hayden Matthews Tranmere Rovers Actif 108 / 111 40% 1 02.05.2028 -
Matteo Prati Cagliari Actif 145 / 133 40% 2 30.04.2028 -
Lamare Bogarde Reading Actif 139 / 131 40% 3 26.04.2028 -
Honest Ahanor Atalanta Actif 137 / 150 40% 1 24.04.2028 -
Charlie Webster Burton Albion Actif 119 / 125 40% 1 24.04.2028 -
Filip Lissah Shrewsbury Town Actif 118 / 116 40% 2 16.04.2028 -
Max Conway Bolton Wanderers Actif 119 / 127 40% 4 15.04.2028 -
Femi Seriki Sheffield United Actif 129 / 127 40% 1 15.04.2028 -
Max Johnston Derby County Actif 142 / 139 40% 2 06.04.2028 -
Esquerdinha Notts County Actif 128 / 124 40% 1 06.04.2028 -
Samuel Kalu Botev Plovdiv Actif 114 / 117 65% 1 04.01.2028 Approuver
Damián Fernández Defensa y Justicia Actif 137 / 121 40% 2 30.12.2027 -
Marko Grujić Levski Actif 128 / 139 40% 1 30.12.2027 -
Ignacio Vázquez Platense Actif 136 / 121 40% 6 29.12.2027 -
Marco Di Cesare Racing Club Actif 132 / 142 40% 2 29.12.2027 -
Vicente Poggi Godoy Cruz Actif 139 / 135 40% 2 29.12.2027 -
Franco Ibarra Rosario Central Actif 138 / 119 40% 3 28.12.2027 -
Marquinhos Spartak Moscow Actif 135 / 130 40% 2 27.12.2027 -
Ignacio Perruzzi San Lorenzo Actif 132 / 134 40% 1 26.12.2027 -
Álex Centelles Levski Actif 135 / 115 40% 2 25.12.2027 -
Will Hughes Bloemfontein Celtic Actif 137 / 136 40% 2 22.12.2027 -
Emerson Royal Flamengo Actif 123 / 118 40% 1 20.12.2027 -
Gastón Benedetti Estudiantes Actif 134 / 130 40% 1 20.12.2027 -
Finn Azaz Southampton Actif 128 / 126 40% 1 16.12.2027 -
Esequiel Barco Spartak Moscow Actif 151 / 141 40% 4 15.12.2027 -
Jhon Jhon Zenit Actif 134 / 143 40% 1 15.12.2027 -
Jean-Philippe Gbamin CSKA Sofia Actif 137 / 138 40% 1 12.12.2027 -
Matías Galarza Talleres Actif 130 / 117 40% 1 12.12.2027 -
Gastón Hernández San Lorenzo Actif 118 / 122 40% 4 09.12.2027 -
Santiago González Tigre Actif 142 / 118 40% 2 09.12.2027 -
Musa Barrow ES Setif Actif 139 / 156 40% 1 06.12.2027 -
Exequiel Palacios Lazio Actif 155 / 151 40% 3 03.12.2027 -
Neco Williams Wrexham Actif 150 / 154 40% 1 03.12.2027 -
Hidemasa Morita Hull City Actif 147 / 148 40% 1 02.12.2027 -
William Osula Wrexham Actif 137 / 145 40% 1 30.11.2027 -
Lucas Carrizo Newell's Old Boys Actif 117 / 138 40% 3 27.11.2027 -
Igor Burnley Actif 146 / 150 40% 2 27.11.2027 -
Reda Khadra Qarabag Actif 132 / 148 40% 2 26.11.2027 -
Manuel Ugarte Leicester City Actif 147 / 146 40% 4 26.11.2027 -
César Pérez Defensa y Justicia Actif 140 / 132 40% 2 25.11.2027 -
Kasey McAteer Barnsley Actif 141 / 129 40% 2 24.11.2027 -
Ben Gannon Doak Charlton Athletic Actif 150 / 151 40% 2 24.11.2027 -
Jaidon Anthony Derby County Actif 147 / 135 40% 2 23.11.2027 -
Harry Wilson Leeds United Actif 151 / 141 40% 2 23.11.2027 -
Juan Carlos Portillo River Plate Actif 116 / 137 40% 4 22.11.2027 -
Koffi Kouao Neftchi Actif 127 / 116 40% 1 22.11.2027 -
Nazareno Colombo Racing Club Actif 114 / 132 40% 1 22.11.2027 -
André Wolverhampton Actif 158 / 157 40% 2 21.11.2027 -
Fer López Wolverhampton Actif 138 / 134 40% 2 20.11.2027 -
Hannibal Burnley Actif 131 / 141 40% 1 20.11.2027 -
Marcus Tavernier Bournemouth Actif 158 / 152 40% 1 20.11.2027 -
Bruno Leyes Godoy Cruz Actif 118 / 140 40% 1 14.11.2027 -
Dwight McNeil Crystal Palace Actif 136 / 152 40% 1 13.11.2027 -
Federico Navarro Rosario Central Actif 141 / 121 40% 2 02.11.2027 -
Santiago Núñez Estudiantes Actif 116 / 133 40% 1 01.11.2027 -
Jack McGlynn Stoke City Actif 145 / 129 40% 2 31.10.2027 -
Marcelo Allende Mamelodi Sundowns Actif 123 / 135 40% 1 27.10.2027 -
Aarón Quiros Vélez Actif 138 / 143 40% 2 24.10.2027 -
Joaquín García Vélez Actif 122 / 141 40% 1 24.10.2027 -
Emanuel Mammana Vélez Actif 128 / 136 40% 1 23.10.2027 -
Marco Pellegrino Boca Juniors Actif 139 / 135 40% 1 23.10.2027 -
Gonzalo Montiel River Plate Actif 119 / 137 40% 1 19.10.2027 -
Felipe Peña Biafore Lanús Actif 115 / 113 40% 2 17.10.2027 -
Jherson Mosquera Newell's Old Boys Actif 112 / 131 40% 1 12.10.2027 -
Emanuel Coronel Rosario Central Actif 114 / 126 40% 1 10.10.2027 -
Agustín Cardozo Lanús Actif 132 / 142 40% 1 09.10.2027 -
Lautaro Di Lollo Boca Juniors Actif 138 / 134 40% 1 08.10.2027 -
Sasha Marcich Lanús Actif 123 / 118 40% 1 05.10.2027 -
Tomáš Suslov Hellas Verona Actif 140 / 138 40% 1 17.08.2027 -
Billy Gilmour Napoli Actif 145 / 150 40% 1 17.08.2027 -
André-Franck Zambo Anguissa Napoli Actif 159 / 163 40% 2 11.08.2027 -
Mattia Zaccagni Lazio Actif 161 / 158 40% 1 11.08.2027 -
Alessio Zerbin Frosinone Actif 132 / 134 40% 1 04.08.2027 -
Oladapo Afolayan Blackburn Rovers Actif 134 / 116 40% 1 04.08.2027 -
Ilias Chair Queens Park Rangers Actif 139 / 129 40% 1 31.07.2027 -
Tatsuhiro Sakamoto Coventry City Actif 132 / 125 40% 1 31.07.2027 -
Andre Brooks Sheffield United Actif 139 / 127 40% 1 29.07.2027 -
Isaiah Jones Luton Town Actif 132 / 127 40% 2 27.07.2027 -
Oliver Skipp Leicester City Actif 131 / 126 40% 1 27.07.2027 -
Derensili Sanches Fernandes Huddersfield Town Actif 134 / 137 40% 1 25.07.2027 -
Matthew Targett Hull City Actif 126 / 142 40% 4 21.07.2027 -
Harrison Burrows Sheffield United Actif 133 / 122 40% 1 21.07.2027 -
Welington Southampton Actif 138 / 129 40% 1 15.07.2027 -
Matt Clarke Derby County Actif 123 / 131 40% 2 13.07.2027 -
Mario Pašalić Atalanta Actif 159 / 138 40% 1 06.07.2027 -
Ryoya Morishita Blackburn Rovers Actif 140 / 132 40% 1 06.07.2027 -
Lewis Gibson Preston Actif 120 / 129 40% 1 04.07.2027 -
Lewis O'Brien Wrexham Actif 123 / 120 40% 1 02.07.2027 -
Caspar Jander Southampton Actif 127 / 131 40% 1 28.06.2027 -
Xande Spartak 1918 Actif 103 / 100 58% 1 14.06.2027 -
Mirlind Daku Spartak Moscow Actif 125 / 140 40% 1 14.06.2027 -
Mustapha Sangaré Levski Actif 106 / 121 58% 1 01.06.2027 Approuver
Kyle Walker-Peters West Ham United Actif 130 / 148 40% 1 31.05.2027 -
Marcus Ifill Crewe Alexandra Actif 96 / 114 40% 1 19.05.2027 -
Lewis Bate Stockport County Actif 125 / 126 40% 1 19.05.2027 -
Oliver Arblaster Sheffield United Actif 135 / 126 40% 3 17.05.2027 -
Romano Floriani Mussolini Blackpool Actif 121 / 132 40% 1 17.05.2027 -
Habib Diarra Sunderland Actif 145 / 145 40% 1 14.05.2027 -
Eneko Astigarraga Real Sociedad Actif 107 / 104 40% 1 13.05.2027 -
Ethan Pye Stockport County Actif 112 / 127 40% 1 09.05.2027 -
Samuel Justo Sporting CP Actif 107 / 105 40% 2 01.05.2027 -
Brando Moruzzi Cittadella Actif 107 / 116 40% 1 25.04.2027 -
Matteo Francesconi Cesena Actif 129 / 124 40% 1 20.04.2027 -
Mandla Kekana Ajax Cape Town Actif 108 / 95 40% 1 20.04.2027 -
Riley Owen Stevenage Actif 112 / 118 40% 1 18.04.2027 -
Gonçalo Oliveira Benfica Actif 114 / 113 40% 1 18.04.2027 -
Federico Zuccon Foggia Actif 117 / 124 40% 1 12.04.2027 -
Musab Al-Juwayr Al-Qadisiyah Actif 132 / 123 40% 1 08.04.2027 -
Junior Mwanga Le Havre AC Actif 121 / 121 40% 1 04.04.2027 -
Charlie Savage Reading Actif 110 / 118 40% 1 30.03.2027 -
Andrey Langovich Rostov Actif 121 / 127 40% 1 28.03.2027 -
David Kokoev Yenisey Actif 113 / 107 40% 1 25.03.2027 -
Rushwin Dortley Kaizer Chiefs Actif 126 / 117 40% 2 21.03.2027 -
Juraj Badelj Aris Actif 117 / 120 40% 1 20.03.2027 -
Veldin Hodža Rubin Actif 119 / 122 40% 1 20.03.2027 -
Khama Dolly Black Aces Actif 109 / 99 40% 1 17.03.2027 -
Ousseynou Seck Randers Actif 125 / 133 40% 1 01.01.2027 -
Sandi Zajc NK Domzale Actif 110 / 117 40% 1 31.12.2026 -
Diego Medina CSKA 1948 Actif 110 / 116 40% 1 20.12.2026 -
Ítalo Ural Actif 111 / 101 40% 1 16.12.2026 -
Ognjen Gašević CSKA 1948 Actif 113 / 119 40% 1 16.12.2026 -
Metinho Basel Actif 136 / 124 40% 1 13.12.2026 -
Victor Melekhin Rostov Actif 110 / 121 40% 1 12.12.2026 -
Thiago Acosta River Plate Actif 123 / 99 40% 1 10.10.2026 -
Lucas Silva River Plate Actif 109 / 103 40% 1 19.08.2026 -
Mihail Polendakov Sheffield United Actif 88 / 95 40% 1 19.08.2026 -
Radoslav Kirilov Levski Actif 128 / 110 58% 1 17.08.2026 Approuver